sensor_id;sensor_type;location;lat;lon;timestamp;pressure;altitude;pressure_sealevel;temperature;humidity
75219;BME280;63801;49.414;19.474;2023-11-21T00:01:35;93059.44;;;6.28;90.44
75219;BME280;63801;49.414;19.474;2023-11-21T00:03:36;93063.31;;;6.30;90.54
75219;BME280;63801;49.414;19.474;2023-11-21T00:05:36;93059.19;;;6.33;90.43
75219;BME280;63801;49.414;19.474;2023-11-21T00:07:37;93070.34;;;6.35;90.47
75219;BME280;63801;49.414;19.474;2023-11-21T00:09:38;93060.75;;;6.34;90.35
75219;BME280;63801;49.414;19.474;2023-11-21T00:11:38;93065.09;;;6.39;90.45
75219;BME280;63801;49.414;19.474;2023-11-21T00:13:39;93069.31;;;6.40;90.44
75219;BME280;63801;49.414;19.474;2023-11-21T00:15:39;93075.78;;;6.39;90.23
75219;BME280;63801;49.414;19.474;2023-11-21T00:17:40;93062.53;;;6.30;90.23
75219;BME280;63801;49.414;19.474;2023-11-21T00:19:41;93078.13;;;6.40;90.38
75219;BME280;63801;49.414;19.474;2023-11-21T00:21:43;93086.97;;;6.41;90.17
75219;BME280;63801;49.414;19.474;2023-11-21T00:23:44;93084.69;;;6.43;90.34
75219;BME280;63801;49.414;19.474;2023-11-21T00:25:44;93089.19;;;6.39;90.24
75219;BME280;63801;49.414;19.474;2023-11-21T00:27:44;93090.66;;;6.36;90.29
75219;BME280;63801;49.414;19.474;2023-11-21T00:29:45;93089.88;;;6.36;90.09
75219;BME280;63801;49.414;19.474;2023-11-21T00:31:45;93090.66;;;6.36;90.32
75219;BME280;63801;49.414;19.474;2023-11-21T00:33:45;93104.03;;;6.36;89.97
75219;BME280;63801;49.414;19.474;2023-11-21T00:35:46;93091.31;;;6.33;90.14
75219;BME280;63801;49.414;19.474;2023-11-21T00:37:46;93102.78;;;6.33;90.10
75219;BME280;63801;49.414;19.474;2023-11-21T00:39:49;93097.00;;;6.31;90.07
75219;BME280;63801;49.414;19.474;2023-11-21T00:41:51;93084.88;;;6.22;90.22
75219;BME280;63801;49.414;19.474;2023-11-21T00:43:52;93098.03;;;6.27;89.88
75219;BME280;63801;49.414;19.474;2023-11-21T00:45:52;93098.03;;;6.27;89.89
75219;BME280;63801;49.414;19.474;2023-11-21T00:47:53;93100.25;;;6.25;90.00
75219;BME280;63801;49.414;19.474;2023-11-21T00:49:53;93093.78;;;6.26;90.16
75219;BME280;63801;49.414;19.474;2023-11-21T00:51:54;93097.13;;;6.23;90.05
75219;BME280;63801;49.414;19.474;2023-11-21T00:53:54;93098.25;;;6.22;90.21
75219;BME280;63801;49.414;19.474;2023-11-21T00:55:55;93086.75;;;6.21;89.91
75219;BME280;63801;49.414;19.474;2023-11-21T00:57:57;93085.88;;;6.17;89.78
75219;BME280;63801;49.414;19.474;2023-11-21T00:59:58;93092.56;;;6.11;89.86
75219;BME280;63801;49.414;19.474;2023-11-21T01:01:58;93085.78;;;6.14;89.77
75219;BME280;63801;49.414;19.474;2023-11-21T01:04:01;93083.75;;;6.11;89.51
75219;BME280;63801;49.414;19.474;2023-11-21T01:06:01;93089.44;;;6.09;89.40
75219;BME280;63801;49.414;19.474;2023-11-21T01:08:02;93081.19;;;6.02;89.38
75219;BME280;63801;49.414;19.474;2023-11-21T01:10:05;93092.25;;;6.01;89.49
75219;BME280;63801;49.414;19.474;2023-11-21T01:12:07;93086.22;;;5.92;89.30
75219;BME280;63801;49.414;19.474;2023-11-21T01:14:07;93089.34;;;5.94;89.39
75219;BME280;63801;49.414;19.474;2023-11-21T01:16:08;93100.38;;;5.92;89.43
75219;BME280;63801;49.414;19.474;2023-11-21T01:18:09;93102.28;;;5.92;89.15
75219;BME280;63801;49.414;19.474;2023-11-21T01:20:09;93088.31;;;5.86;89.31
75219;BME280;63801;49.414;19.474;2023-11-21T01:22:13;93103.56;;;5.85;89.40
75219;BME280;63801;49.414;19.474;2023-11-21T01:24:13;93103.16;;;5.83;89.17
75219;BME280;63801;49.414;19.474;2023-11-21T01:26:14;93081.28;;;5.69;89.14
75219;BME280;63801;49.414;19.474;2023-11-21T01:28:14;93100.69;;;5.78;89.21
75219;BME280;63801;49.414;19.474;2023-11-21T01:30:14;93092.66;;;5.78;89.35
75219;BME280;63801;49.414;19.474;2023-11-21T01:32:16;93093.00;;;5.77;89.42
75219;BME280;63801;49.414;19.474;2023-11-21T01:34:16;93103.69;;;5.77;89.87
75219;BME280;63801;49.414;19.474;2023-11-21T01:36:17;93101.13;;;5.80;89.03
75219;BME280;63801;49.414;19.474;2023-11-21T01:38:17;93094.66;;;5.81;89.36
75219;BME280;63801;49.414;19.474;2023-11-21T01:40:17;93093.56;;;5.82;89.29
75219;BME280;63801;49.414;19.474;2023-11-21T01:42:18;93091.66;;;5.83;89.30
75219;BME280;63801;49.414;19.474;2023-11-21T01:44:19;93092.00;;;5.81;89.47
75219;BME280;63801;49.414;19.474;2023-11-21T01:46:20;93093.97;;;5.84;89.14
75219;BME280;63801;49.414;19.474;2023-11-21T01:48:21;93091.00;;;5.86;89.18
75219;BME280;63801;49.414;19.474;2023-11-21T01:50:21;93101.59;;;5.82;89.21
75219;BME280;63801;49.414;19.474;2023-11-21T01:52:22;93099.34;;;5.84;89.23
75219;BME280;63801;49.414;19.474;2023-11-21T01:54:23;93105.19;;;5.86;89.24
75219;BME280;63801;49.414;19.474;2023-11-21T01:56:24;93094.66;;;5.81;89.22
75219;BME280;63801;49.414;19.474;2023-11-21T01:58:24;93100.91;;;5.85;89.10
75219;BME280;63801;49.414;19.474;2023-11-21T02:00:24;93086.44;;;5.86;88.88
75219;BME280;63801;49.414;19.474;2023-11-21T02:02:28;93082.19;;;5.85;88.95
75219;BME280;63801;49.414;19.474;2023-11-21T02:04:28;93083.97;;;5.81;88.84
75219;BME280;63801;49.414;19.474;2023-11-21T02:06:28;93090.09;;;5.82;88.73
75219;BME280;63801;49.414;19.474;2023-11-21T02:08:31;93099.22;;;5.81;89.08
75219;BME280;63801;49.414;19.474;2023-11-21T02:10:31;93103.69;;;5.77;89.07
75219;BME280;63801;49.414;19.474;2023-11-21T02:12:32;93105.38;;;5.81;88.85
75219;BME280;63801;49.414;19.474;2023-11-21T02:14:32;93100.00;;;5.81;88.73
75219;BME280;63801;49.414;19.474;2023-11-21T02:16:33;93096.66;;;5.84;88.96
75219;BME280;63801;49.414;19.474;2023-11-21T02:18:33;93097.16;;;5.86;88.77
75219;BME280;63801;49.414;19.474;2023-11-21T02:20:34;93100.28;;;5.89;88.85
75219;BME280;63801;49.414;19.474;2023-11-21T02:22:37;93087.75;;;5.80;88.89
75219;BME280;63801;49.414;19.474;2023-11-21T02:24:41;93094.94;;;5.89;88.78
75219;BME280;63801;49.414;19.474;2023-11-21T02:26:42;93104.50;;;5.90;88.75
75219;BME280;63801;49.414;19.474;2023-11-21T02:28:42;93101.03;;;5.89;88.43
75219;BME280;63801;49.414;19.474;2023-11-21T02:30:43;93089.59;;;5.89;88.76
75219;BME280;63801;49.414;19.474;2023-11-21T02:32:43;93080.88;;;5.79;88.95
75219;BME280;63801;49.414;19.474;2023-11-21T02:34:44;93096.47;;;5.90;88.59
75219;BME280;63801;49.414;19.474;2023-11-21T02:36:44;93101.03;;;5.89;88.79
75219;BME280;63801;49.414;19.474;2023-11-21T02:38:45;93088.31;;;5.86;88.78
75219;BME280;63801;49.414;19.474;2023-11-21T02:40:45;93093.97;;;5.84;88.80
75219;BME280;63801;49.414;19.474;2023-11-21T02:42:49;93078.84;;;5.76;88.81
75219;BME280;63801;49.414;19.474;2023-11-21T02:44:53;93085.84;;;5.81;89.01
75219;BME280;63801;49.414;19.474;2023-11-21T02:46:53;93083.41;;;5.76;88.79
75219;BME280;63801;49.414;19.474;2023-11-21T02:48:53;93090.19;;;5.85;88.65
75219;BME280;63801;49.414;19.474;2023-11-21T02:50:54;93093.97;;;5.84;88.82
75219;BME280;63801;49.414;19.474;2023-11-21T02:52:55;93074.94;;;5.74;88.93
75219;BME280;63801;49.414;19.474;2023-11-21T02:54:57;93092.44;;;5.83;88.77
75219;BME280;63801;49.414;19.474;2023-11-21T02:56:57;93092.44;;;5.83;88.92
75219;BME280;63801;49.414;19.474;2023-11-21T02:59:00;93100.00;;;5.81;88.70
75219;BME280;63801;49.414;19.474;2023-11-21T03:01:00;93096.56;;;5.81;88.83
75219;BME280;63801;49.414;19.474;2023-11-21T03:03:00;93092.66;;;5.78;88.64
75219;BME280;63801;49.414;19.474;2023-11-21T03:05:01;93102.91;;;5.76;88.65
75219;BME280;63801;49.414;19.474;2023-11-21T03:07:01;93104.38;;;5.74;88.69
75219;BME280;63801;49.414;19.474;2023-11-21T03:09:02;93114.28;;;5.73;88.76
75219;BME280;63801;49.414;19.474;2023-11-21T03:11:02;93115.84;;;5.74;88.92
75219;BME280;63801;49.414;19.474;2023-11-21T03:13:03;93110.94;;;5.76;88.94
75219;BME280;63801;49.414;19.474;2023-11-21T03:15:05;93099.34;;;5.72;88.97
75219;BME280;63801;49.414;19.474;2023-11-21T03:17:06;93113.72;;;5.80;88.99
75219;BME280;63801;49.414;19.474;2023-11-21T03:19:06;93122.50;;;5.80;88.85
75219;BME280;63801;49.414;19.474;2023-11-21T03:21:08;93116.06;;;5.81;88.76
75219;BME280;63801;49.414;19.474;2023-11-21T03:23:09;93119.41;;;5.78;88.79
75219;BME280;63801;49.414;19.474;2023-11-21T03:25:09;93113.38;;;5.81;88.86
75219;BME280;63801;49.414;19.474;2023-11-21T03:27:12;93115.28;;;5.81;88.74
75219;BME280;63801;49.414;19.474;2023-11-21T03:29:12;93114.16;;;5.82;88.96
75219;BME280;63801;49.414;19.474;2023-11-21T03:31:13;93106.03;;;5.78;88.95
75219;BME280;63801;49.414;19.474;2023-11-21T03:33:13;93116.94;;;5.85;88.79
75219;BME280;63801;49.414;19.474;2023-11-21T03:35:13;93104.69;;;5.84;88.89
75219;BME280;63801;49.414;19.474;2023-11-21T03:37:14;93117.72;;;5.86;88.75
75219;BME280;63801;49.414;19.474;2023-11-21T03:39:14;93106.16;;;5.82;88.83
75219;BME280;63801;49.414;19.474;2023-11-21T03:41:15;93119.00;;;5.89;89.15
75219;BME280;63801;49.414;19.474;2023-11-21T03:43:15;93125.91;;;5.90;88.76
75219;BME280;63801;49.414;19.474;2023-11-21T03:45:15;93123.69;;;5.92;88.75
75219;BME280;63801;49.414;19.474;2023-11-21T03:47:16;93120.53;;;5.90;88.79
75219;BME280;63801;49.414;19.474;2023-11-21T03:49:16;93117.44;;;5.88;88.88
75219;BME280;63801;49.414;19.474;2023-11-21T03:51:16;93115.66;;;5.92;88.79
75219;BME280;63801;49.414;19.474;2023-11-21T03:53:17;93123.31;;;5.93;88.78
75219;BME280;63801;49.414;19.474;2023-11-21T03:55:17;93120.22;;;5.91;88.75
75219;BME280;63801;49.414;19.474;2023-11-21T03:57:17;93110.53;;;5.86;88.74
75219;BME280;63801;49.414;19.474;2023-11-21T03:59:18;93104.84;;;5.88;88.66
75219;BME280;63801;49.414;19.474;2023-11-21T04:01:20;93113.19;;;5.86;88.66
75219;BME280;63801;49.414;19.474;2023-11-21T04:03:21;93112.38;;;5.86;88.68
75219;BME280;63801;49.414;19.474;2023-11-21T04:05:22;93096.91;;;5.79;88.69
75219;BME280;63801;49.414;19.474;2023-11-21T04:07:23;93117.72;;;5.86;88.61
75219;BME280;63801;49.414;19.474;2023-11-21T04:09:23;93114.28;;;5.85;88.67
75219;BME280;63801;49.414;19.474;2023-11-21T04:11:25;93115.88;;;5.86;88.48
75219;BME280;63801;49.414;19.474;2023-11-21T04:13:25;93108.63;;;5.87;88.65
75219;BME280;63801;49.414;19.474;2023-11-21T04:15:25;93120.91;;;5.88;88.60
75219;BME280;63801;49.414;19.474;2023-11-21T04:17:26;93104.69;;;5.84;88.68
75219;BME280;63801;49.414;19.474;2023-11-21T04:19:26;93120.13;;;5.88;88.62
75219;BME280;63801;49.414;19.474;2023-11-21T04:21:27;93113.97;;;5.87;88.59
75219;BME280;63801;49.414;19.474;2023-11-21T04:23:29;93116.66;;;5.87;88.41
75219;BME280;63801;49.414;19.474;2023-11-21T04:25:31;93110.97;;;5.89;88.49
75219;BME280;63801;49.414;19.474;2023-11-21T04:27:31;93113.97;;;5.87;88.64
75219;BME280;63801;49.414;19.474;2023-11-21T04:29:31;93109.41;;;5.88;88.63
75219;BME280;63801;49.414;19.474;2023-11-21T04:31:31;93116.94;;;5.85;88.48
75219;BME280;63801;49.414;19.474;2023-11-21T04:33:32;93119.97;;;5.84;88.62
75219;BME280;63801;49.414;19.474;2023-11-21T04:35:33;93108.34;;;5.80;88.70
75219;BME280;63801;49.414;19.474;2023-11-21T04:37:33;93107.16;;;5.77;88.56
75219;BME280;63801;49.414;19.474;2023-11-21T04:39:33;93115.28;;;5.81;88.71
75219;BME280;63801;49.414;19.474;2023-11-21T04:41:33;93120.63;;;5.81;88.77
75219;BME280;63801;49.414;19.474;2023-11-21T04:43:34;93116.75;;;5.78;88.86
75219;BME280;63801;49.414;19.474;2023-11-21T04:45:34;93122.09;;;5.78;88.55
75219;BME280;63801;49.414;19.474;2023-11-21T04:47:35;93117.53;;;5.79;88.76
75219;BME280;63801;49.414;19.474;2023-11-21T04:49:36;93126.97;;;5.76;88.84
75219;BME280;63801;49.414;19.474;2023-11-21T04:51:36;93124.28;;;5.76;88.78
75219;BME280;63801;49.414;19.474;2023-11-21T04:53:37;93123.88;;;5.74;88.94
75219;BME280;63801;49.414;19.474;2023-11-21T04:55:37;93130.44;;;5.77;88.45
75219;BME280;63801;49.414;19.474;2023-11-21T04:57:38;93110.25;;;5.67;89.06
75219;BME280;63801;49.414;19.474;2023-11-21T04:59:38;93128.06;;;5.75;88.90
75219;BME280;63801;49.414;19.474;2023-11-21T05:01:38;93120.06;;;5.75;88.88
75219;BME280;63801;49.414;19.474;2023-11-21T05:03:39;93125.97;;;5.81;88.78
75219;BME280;63801;49.414;19.474;2023-11-21T05:05:39;93135.56;;;5.82;88.81
75219;BME280;63801;49.414;19.474;2023-11-21T05:07:42;93117.16;;;5.68;88.94
75219;BME280;63801;49.414;19.474;2023-11-21T05:09:43;93133.09;;;5.77;88.73
75219;BME280;63801;49.414;19.474;2023-11-21T05:11:46;93137.88;;;5.71;88.84
75219;BME280;63801;49.414;19.474;2023-11-21T05:13:48;93132.53;;;5.71;88.96
75219;BME280;63801;49.414;19.474;2023-11-21T05:15:49;93122.03;;;5.54;88.88
75219;BME280;63801;49.414;19.474;2023-11-21T05:17:50;93137.00;;;5.67;89.09
75219;BME280;63801;49.414;19.474;2023-11-21T05:19:52;93140.91;;;5.70;89.04
75219;BME280;63801;49.414;19.474;2023-11-21T05:21:52;93140.44;;;5.68;89.07
75219;BME280;63801;49.414;19.474;2023-11-21T05:23:52;93140.00;;;5.66;88.96
75219;BME280;63801;49.414;19.474;2023-11-21T05:25:53;93143.00;;;5.64;88.99
75219;BME280;63801;49.414;19.474;2023-11-21T05:27:53;93141.91;;;5.65;89.08
75219;BME280;63801;49.414;19.474;2023-11-21T05:29:54;93148.34;;;5.64;89.08
75219;BME280;63801;49.414;19.474;2023-11-21T05:31:55;93146.78;;;5.63;89.05
75219;BME280;63801;49.414;19.474;2023-11-21T05:33:55;93146.34;;;5.61;89.02
75219;BME280;63801;49.414;19.474;2023-11-21T05:35:55;93149.03;;;5.61;89.08
75219;BME280;63801;49.414;19.474;2023-11-21T05:37:56;93146.00;;;5.63;89.14
75219;BME280;63801;49.414;19.474;2023-11-21T05:39:56;93152.91;;;5.64;89.18
75219;BME280;63801;49.414;19.474;2023-11-21T05:41:57;93157.03;;;5.61;89.04
75219;BME280;63801;49.414;19.474;2023-11-21T05:43:57;93152.81;;;5.60;88.93
75219;BME280;63801;49.414;19.474;2023-11-21T05:45:58;93152.34;;;5.58;89.05
75219;BME280;63801;49.414;19.474;2023-11-21T05:47:58;93158.16;;;5.60;88.95
75219;BME280;63801;49.414;19.474;2023-11-21T05:49:59;93165.72;;;5.58;88.99
75219;BME280;63801;49.414;19.474;2023-11-21T05:51:59;93170.72;;;5.60;88.93
75219;BME280;63801;49.414;19.474;2023-11-21T05:53:59;93168.72;;;5.57;88.66
75219;BME280;63801;49.414;19.474;2023-11-21T05:56:00;93167.94;;;5.56;88.78
75219;BME280;63801;49.414;19.474;2023-11-21T05:58:00;93160.59;;;5.53;88.71
75219;BME280;63801;49.414;19.474;2023-11-21T06:00:00;93152.31;;;5.46;88.96
75219;BME280;63801;49.414;19.474;2023-11-21T06:02:09;93154.41;;;5.40;88.74
75219;BME280;63801;49.414;19.474;2023-11-21T06:04:10;93160.13;;;5.39;88.38
75219;BME280;63801;49.414;19.474;2023-11-21T06:06:10;93165.00;;;5.37;88.82
75219;BME280;63801;49.414;19.474;2023-11-21T06:08:11;93178.94;;;5.42;89.01
75219;BME280;63801;49.414;19.474;2023-11-21T06:10:11;93175.47;;;5.42;88.84
75219;BME280;63801;49.414;19.474;2023-11-21T06:12:14;93173.59;;;5.42;88.90
75219;BME280;63801;49.414;19.474;2023-11-21T06:14:16;93177.47;;;5.45;88.86
75219;BME280;63801;49.414;19.474;2023-11-21T06:16:18;93181.28;;;5.44;88.92
75219;BME280;63801;49.414;19.474;2023-11-21T06:18:19;93184.41;;;5.46;89.00
75219;BME280;63801;49.414;19.474;2023-11-21T06:20:20;93182.03;;;5.44;89.09
75219;BME280;63801;49.414;19.474;2023-11-21T06:22:21;93184.41;;;5.46;89.03
75219;BME280;63801;49.414;19.474;2023-11-21T06:24:21;93189.06;;;5.49;88.86
75219;BME280;63801;49.414;19.474;2023-11-21T06:26:22;93179.72;;;5.43;89.05
75219;BME280;63801;49.414;19.474;2023-11-21T06:28:22;93186.75;;;5.48;89.32
75219;BME280;63801;49.414;19.474;2023-11-21T06:30:22;93194.41;;;5.49;88.87
75219;BME280;63801;49.414;19.474;2023-11-21T06:32:23;93185.28;;;5.50;88.99
75219;BME280;63801;49.414;19.474;2023-11-21T06:34:23;93178.81;;;5.39;88.81
75219;BME280;63801;49.414;19.474;2023-11-21T06:36:24;93193.53;;;5.45;89.12
75219;BME280;63801;49.414;19.474;2023-11-21T06:38:24;93196.66;;;5.47;88.87
75219;BME280;63801;49.414;19.474;2023-11-21T06:40:24;93189.44;;;5.48;88.95
75219;BME280;63801;49.414;19.474;2023-11-21T06:42:25;93204.00;;;5.50;88.94
75219;BME280;63801;49.414;19.474;2023-11-21T06:44:25;93195.22;;;5.50;88.99
75219;BME280;63801;49.414;19.474;2023-11-21T06:46:26;93198.03;;;5.53;89.26
75219;BME280;63801;49.414;19.474;2023-11-21T06:48:26;93204.59;;;5.56;89.18
75219;BME280;63801;49.414;19.474;2023-11-21T06:50:26;93203.81;;;5.55;89.19
75219;BME280;63801;49.414;19.474;2023-11-21T06:52:27;93207.06;;;5.61;88.88
75219;BME280;63801;49.414;19.474;2023-11-21T06:54:27;93208.75;;;5.65;89.09
75219;BME280;63801;49.414;19.474;2023-11-21T06:56:27;93218.09;;;5.71;89.25
75219;BME280;63801;49.414;19.474;2023-11-21T06:58:28;93196.94;;;5.66;89.13
75219;BME280;63801;49.414;19.474;2023-11-21T07:00:28;93211.91;;;5.79;89.22
75219;BME280;63801;49.414;19.474;2023-11-21T07:02:29;93215.00;;;5.81;89.13
75219;BME280;63801;49.414;19.474;2023-11-21T07:04:29;93217.97;;;5.89;89.09
75219;BME280;63801;49.414;19.474;2023-11-21T07:06:29;93216.50;;;5.91;89.14
75219;BME280;63801;49.414;19.474;2023-11-21T07:08:29;93223.88;;;5.94;89.25
75219;BME280;63801;49.414;19.474;2023-11-21T07:10:30;93209.84;;;5.97;89.07
75219;BME280;63801;49.414;19.474;2023-11-21T07:12:30;93210.28;;;5.99;89.03
75219;BME280;63801;49.414;19.474;2023-11-21T07:14:34;93200.81;;;6.02;89.27
75219;BME280;63801;49.414;19.474;2023-11-21T07:16:35;93209.28;;;6.04;89.16
75219;BME280;63801;49.414;19.474;2023-11-21T07:18:37;93208.41;;;6.12;89.47
75219;BME280;63801;49.414;19.474;2023-11-21T07:20:37;93204.50;;;6.21;89.44
75219;BME280;63801;49.414;19.474;2023-11-21T07:22:38;93194.91;;;6.20;89.39
75219;BME280;63801;49.414;19.474;2023-11-21T07:24:38;93214.09;;;6.35;89.36
75219;BME280;63801;49.414;19.474;2023-11-21T07:26:38;93213.66;;;6.45;89.16
75219;BME280;63801;49.414;19.474;2023-11-21T07:28:39;93218.00;;;6.49;88.83
75219;BME280;63801;49.414;19.474;2023-11-21T07:30:39;93206.31;;;6.42;88.47
75219;BME280;63801;49.414;19.474;2023-11-21T07:32:39;93214.09;;;6.47;88.50
75219;BME280;63801;49.414;19.474;2023-11-21T07:34:40;93212.97;;;6.48;88.79
75219;BME280;63801;49.414;19.474;2023-11-21T07:36:44;93218.44;;;6.51;88.81
75219;BME280;63801;49.414;19.474;2023-11-21T07:38:44;93223.78;;;6.51;88.33
75219;BME280;63801;49.414;19.474;2023-11-21T07:40:45;93204.38;;;6.42;88.44
75219;BME280;63801;49.414;19.474;2023-11-21T07:42:45;93225.16;;;6.45;88.55
75219;BME280;63801;49.414;19.474;2023-11-21T07:44:45;93229.59;;;6.53;88.28
75219;BME280;63801;49.414;19.474;2023-11-21T07:46:46;93229.59;;;6.53;88.40
75219;BME280;63801;49.414;19.474;2023-11-21T07:48:47;93232.63;;;6.52;88.35
75219;BME280;63801;49.414;19.474;2023-11-21T07:50:47;93232.97;;;6.50;88.00
75219;BME280;63801;49.414;19.474;2023-11-21T07:52:48;93236.75;;;6.49;87.85
75219;BME280;63801;49.414;19.474;2023-11-21T07:54:49;93237.41;;;6.46;87.93
75219;BME280;63801;49.414;19.474;2023-11-21T07:56:50;93242.75;;;6.46;87.85
75219;BME280;63801;49.414;19.474;2023-11-21T07:58:51;93234.09;;;6.37;87.86
75219;BME280;63801;49.414;19.474;2023-11-21T08:00:51;93229.38;;;6.34;87.73
75219;BME280;63801;49.414;19.474;2023-11-21T08:02:52;93232.50;;;6.36;88.02
75219;BME280;63801;49.414;19.474;2023-11-21T08:04:52;93214.66;;;6.28;88.15
75219;BME280;63801;49.414;19.474;2023-11-21T08:06:52;93233.09;;;6.42;88.26
75219;BME280;63801;49.414;19.474;2023-11-21T08:08:52;93232.97;;;6.50;88.22
75219;BME280;63801;49.414;19.474;2023-11-21T08:10:53;93231.19;;;6.54;88.86
75219;BME280;63801;49.414;19.474;2023-11-21T08:12:56;93232.50;;;6.72;88.75
75219;BME280;63801;49.414;19.474;2023-11-21T08:14:56;93232.81;;;6.83;88.73
75219;BME280;63801;49.414;19.474;2023-11-21T08:16:57;93235.47;;;6.95;88.92
75219;BME280;63801;49.414;19.474;2023-11-21T08:18:57;93231.66;;;7.08;88.62
75219;BME280;63801;49.414;19.474;2023-11-21T08:20:58;93226.03;;;7.26;88.99
75219;BME280;63801;49.414;19.474;2023-11-21T08:22:58;93228.06;;;7.44;88.29
75219;BME280;63801;49.414;19.474;2023-11-21T08:24:58;93207.50;;;7.48;88.29
75219;BME280;63801;49.414;19.474;2023-11-21T08:26:59;93228.88;;;7.73;87.83
75219;BME280;63801;49.414;19.474;2023-11-21T08:28:59;93233.06;;;7.86;87.95
75219;BME280;63801;49.414;19.474;2023-11-21T08:31:01;93238.63;;;8.08;87.97
75219;BME280;63801;49.414;19.474;2023-11-21T08:33:01;93239.09;;;8.42;87.06
75219;BME280;63801;49.414;19.474;2023-11-21T08:35:03;93233.53;;;8.82;86.58
75219;BME280;63801;49.414;19.474;2023-11-21T08:37:04;93236.28;;;9.55;85.79
75219;BME280;63801;49.414;19.474;2023-11-21T08:39:04;93237.94;;;10.44;85.70
75219;BME280;63801;49.414;19.474;2023-11-21T08:41:06;93238.75;;;11.19;82.37
75219;BME280;63801;49.414;19.474;2023-11-21T08:43:11;93235.19;;;11.71;81.87
75219;BME280;63801;49.414;19.474;2023-11-21T08:45:12;93241.53;;;11.86;78.87
75219;BME280;63801;49.414;19.474;2023-11-21T08:47:12;93232.41;;;11.94;77.94
75219;BME280;63801;49.414;19.474;2023-11-21T08:49:13;93234.91;;;12.13;76.03
75219;BME280;63801;49.414;19.474;2023-11-21T08:51:15;93224.88;;;12.14;75.65
75219;BME280;63801;49.414;19.474;2023-11-21T08:53:15;93224.19;;;12.21;76.30
75219;BME280;63801;49.414;19.474;2023-11-21T08:55:17;93226.00;;;12.09;75.59
75219;BME280;63801;49.414;19.474;2023-11-21T08:57:17;93224.41;;;12.05;75.02
75219;BME280;63801;49.414;19.474;2023-11-21T08:59:17;93224.63;;;11.89;76.08
75219;BME280;63801;49.414;19.474;2023-11-21T09:01:18;93230.59;;;11.72;76.08
75219;BME280;63801;49.414;19.474;2023-11-21T09:03:18;93228.28;;;11.44;75.17
75219;BME280;63801;49.414;19.474;2023-11-21T09:05:18;93235.94;;;11.12;76.03
75219;BME280;63801;49.414;19.474;2023-11-21T09:07:20;93225.34;;;10.74;75.46
75219;BME280;63801;49.414;19.474;2023-11-21T09:09:21;93234.22;;;10.52;76.54
75219;BME280;63801;49.414;19.474;2023-11-21T09:11:21;93223.69;;;10.20;76.55
75219;BME280;63801;49.414;19.474;2023-11-21T09:13:21;93233.03;;;10.07;76.70
75219;BME280;63801;49.414;19.474;2023-11-21T09:15:22;93232.28;;;9.87;77.14
75219;BME280;63801;49.414;19.474;2023-11-21T09:17:22;93236.63;;;9.73;77.71
75219;BME280;63801;49.414;19.474;2023-11-21T09:19:23;93240.88;;;9.55;77.33
75219;BME280;63801;49.414;19.474;2023-11-21T09:21:23;93241.69;;;9.39;77.29
75219;BME280;63801;49.414;19.474;2023-11-21T09:23:25;93242.44;;;9.21;77.58
75219;BME280;63801;49.414;19.474;2023-11-21T09:25:25;93238.25;;;9.04;77.95
75219;BME280;63801;49.414;19.474;2023-11-21T09:27:25;93237.50;;;8.88;77.72
75219;BME280;63801;49.414;19.474;2023-11-21T09:29:26;93241.00;;;8.73;77.47
75219;BME280;63801;49.414;19.474;2023-11-21T09:31:27;93237.97;;;8.58;77.90
75219;BME280;63801;49.414;19.474;2023-11-21T09:33:27;93243.88;;;8.48;78.01
75219;BME280;63801;49.414;19.474;2023-11-21T09:35:28;93237.38;;;8.34;78.44
75219;BME280;63801;49.414;19.474;2023-11-21T09:37:28;93242.19;;;8.28;77.76
75219;BME280;63801;49.414;19.474;2023-11-21T09:39:28;93246.25;;;8.22;78.47
75219;BME280;63801;49.414;19.474;2023-11-21T09:41:37;93243.03;;;8.17;78.95
75219;BME280;63801;49.414;19.474;2023-11-21T09:43:40;93243.63;;;8.10;78.67
75219;BME280;63801;49.414;19.474;2023-11-21T09:45:45;93242.44;;;8.07;78.64
75219;BME280;63801;49.414;19.474;2023-11-21T09:47:46;93237.84;;;8.08;79.32
75219;BME280;63801;49.414;19.474;2023-11-21T09:49:48;93239.84;;;8.11;79.09
75219;BME280;63801;49.414;19.474;2023-11-21T09:51:50;93231.25;;;8.05;78.95
75219;BME280;63801;49.414;19.474;2023-11-21T09:53:54;93216.88;;;7.98;79.12
75219;BME280;63801;49.414;19.474;2023-11-21T09:55:55;93238.19;;;8.06;78.85
75219;BME280;63801;49.414;19.474;2023-11-21T09:57:56;93235.59;;;8.10;79.22
75219;BME280;63801;49.414;19.474;2023-11-21T09:59:59;93234.47;;;8.11;79.42
75219;BME280;63801;49.414;19.474;2023-11-21T10:02:03;93232.84;;;8.22;79.54
75219;BME280;63801;49.414;19.474;2023-11-21T10:04:04;93232.59;;;8.27;79.53
75219;BME280;63801;49.414;19.474;2023-11-21T10:06:06;93236.16;;;8.31;79.26
75219;BME280;63801;49.414;19.474;2023-11-21T10:08:09;93240.84;;;8.34;79.13
75219;BME280;63801;49.414;19.474;2023-11-21T10:10:13;93234.34;;;8.35;79.06
75219;BME280;63801;49.414;19.474;2023-11-21T10:12:18;93227.41;;;8.34;79.23
75219;BME280;63801;49.414;19.474;2023-11-21T10:14:24;93240.66;;;8.43;79.06
75219;BME280;63801;49.414;19.474;2023-11-21T10:16:25;93248.03;;;8.46;78.65
75219;BME280;63801;49.414;19.474;2023-11-21T10:18:26;93234.25;;;8.47;78.73
75219;BME280;63801;49.414;19.474;2023-11-21T10:20:27;93234.84;;;8.56;78.81
75219;BME280;63801;49.414;19.474;2023-11-21T10:22:27;93236.50;;;8.61;78.51
75219;BME280;63801;49.414;19.474;2023-11-21T10:24:28;93235.13;;;8.67;78.75
75219;BME280;63801;49.414;19.474;2023-11-21T10:26:29;93231.28;;;8.68;78.51
75219;BME280;63801;49.414;19.474;2023-11-21T10:28:35;93244.53;;;8.77;78.15
75219;BME280;63801;49.414;19.474;2023-11-21T10:30:38;93242.13;;;8.72;77.54
75219;BME280;63801;49.414;19.474;2023-11-21T10:32:39;93246.91;;;8.63;77.38
75219;BME280;63801;49.414;19.474;2023-11-21T10:34:40;93244.03;;;8.55;77.71
75219;BME280;63801;49.414;19.474;2023-11-21T10:36:41;93247.84;;;8.54;78.03
75219;BME280;63801;49.414;19.474;2023-11-21T10:38:42;93240.75;;;8.46;77.31
75219;BME280;63801;49.414;19.474;2023-11-21T10:40:44;93246.81;;;8.43;77.49